Карточка аэропорта UMKK

Внимание!
Информация на этой странице в стадии наполнения.
Если вы не увидели какой-то информации, или заметили неточность - пожалуйста сообщите нам!
Спасибо!
Команда RU-STAFF
Название аэропортаХраброво
Название аэропорта (англ.)Khrabrovo
Превышение43 ft. (13.1 m.)
Координаты54°53.4', 20°35.55'
Высота перехода4000ft
Эшелон переходаFL50 (QNH>=1013hPa); FL60 (QNH<1013hPa); FL50 (QNH<977hPa);
Коды ответчика6620-6637
Зона ОрВДКалининград РПИ (UMKK)
Данные METARUMKK 251730Z 13002MPS CAVOK 05/03 Q1009 R24/CLRD95 NOSIG RMK QFE755/1007
Проноз погоды (TAF)UMKK 251655Z 2518/2618 15003G08MPS 3000 -RA BR FEW005 BKN011 TEMPO 2518/2524 VRB10G17MPS 1200 TSRAGS BR BKN003 SCT016CB BECMG 2600/2602 0600 FG BKN002 TEMPO 2602/2609 0200 FG VV001 BECMG 2609/2612 3900 BR BCFG FEW002 BKN004 BECMG 2612/2613 10003G08MPS BECMG 2613/2615 0300 FG BKN002
NOTAMshow/hide NOTAM
AWOS   TABLE

Информация о ВПП

ВПП Длина ВПП (м.) Покрытие Курс ВПП Частота ILS
063350Асфальтобетон60110.3
243350Асфальтобетон240109.5

Диспетчерские позиции

Позывной Наименование органа УВД Частота
UMKK_TWRКалининград-Вышка127.2
UMKK_APPКалининград-Подход126.0



Спутниковое изображение